METAR AND TAF INFORMATION

METAR FOR LTFM
ADDS - METARS form results

(0211 UTC 05 December 2022)
Data provider http://aviationweather.gov/metar/data/
 
METAR text: LTFM 050150Z 02008KT 9999 SCT014 BKN028 11/08 Q1026 NOSIG RMK RWY17L 02009KT RWY34L 36007KT RWY16R 36007KT RWY36 04004KT RWY18 02007KT
Conditions at: LTFM (ISTANBUL HANALI , TR) observed 0150 UTC 05 December 2022
Temperature: 11.0°C (52°F)
Dewpoint: 8.0°C (46°F) [RH = 82%]
Pressure (altimeter): 30.30 inches Hg (1026.0 mb)
Winds: from the NNE (20 degrees) at 9 MPH (8 knots; 4.1 m/s)
Visibility: 6 or more miles (10+ km)
Ceiling: 2800 feet AGL
Clouds: scattered clouds at 1400 feet AGL
broken clouds at 2800 feet AGL
Weather: no significant weather observed at this time

METAR text: LTFM 050120Z 01007KT 9999 SCT014 BKN028 11/09 Q1026 NOSIG RMK RWY17L 01008KT RWY34L 01006KT RWY16R 01007KT RWY36 02007KT RWY18 01007KT
Conditions at: LTFM (ISTANBUL HANALI , TR) observed 0120 UTC 05 December 2022
Temperature: 11.0°C (52°F)
Dewpoint: 9.0°C (48°F) [RH = 87%]
Pressure (altimeter): 30.30 inches Hg (1026.0 mb)
Winds: from the N (10 degrees) at 8 MPH (7 knots; 3.6 m/s)
Visibility: 6 or more miles (10+ km)
Ceiling: 2800 feet AGL
Clouds: scattered clouds at 1400 feet AGL
broken clouds at 2800 feet AGL
Weather: no significant weather observed at this time

Forecast for: LTFM (ISTANBUL HANALI , TR)
Text: TAF LTFM 042240Z 0500/0606 04009KT 9999 SCT018 BKN028
Forecast period: 0000 to 0300 UTC 05 December 2022
Forecast type: FROM: standard forecast or significant change
Winds: from the NE (40 degrees) at 10 MPH (9 knots; 4.6 m/s)
Visibility: 6 or more miles (10+ km)
Ceiling: 2800 feet AGL
Clouds: scattered clouds at 1800 feet AGL
broken clouds at 2800 feet AGL
Weather: no significant weather forecast for this period
Text: BECMG 0503/0506 -RA BKN012 BKN025
Forecast period: 0300 UTC 05 December 2022 to 0600 UTC 06 December 2022
Forecast type: BECOMING: Conditions expected to become as follows by 0600 UTC 05 December 2022
Winds: from the NE (40 degrees) at 10 MPH (9 knots; 4.6 m/s)
Visibility: 6 or more miles (10+ km)
Ceiling: 1200 feet AGL
Clouds: broken clouds at 1200 feet AGL
broken clouds at 2500 feet AGL
Weather: -RA  (light rain)

 

AIRPORT MAP

 

RUNWAY INFORMATION


 

AIRPORT FREQUENCIES


 

AIRPORT NEAR NAVIGATION AIDS